APG133 RCKH-RPLL
Flight info
| Callsign | APG133 |
|---|---|
| Flight time | 1h 27m |
| Altitude | 38000 |
| Route | HCN M646 SANRO W4 NABAL |
| Aircraft | A20N/M-SDE2E3FGHIRWXY/LB1 |
Departure
| Time | 2026-04-30 11:15 |
|---|---|
| Airport | Kaohsiung International Airport (RCKH) |
Arrival
| Time | 2026-04-30 12:43 |
|---|---|
| Airport | Ninoy Aquino International Airport (RPLL) |
| Time | Latitude | Longitude | Altitude | Speed | Heading |
|---|---|---|---|---|---|
| 2026-04-30 10:40 | 22.57332 | 120.34226 | 40 ft | 0 kts | 271° |
| 2026-04-30 11:03 | 22.57332 | 120.34244 | 37 ft | 2 kts | 271° |
| 2026-04-30 11:04 | 22.57331 | 120.34279 | 37 ft | 2 kts | 274° |
| 2026-04-30 11:04 | 22.57329 | 120.34297 | 40 ft | 2 kts | 278° |
| 2026-04-30 11:04 | 22.57326 | 120.34314 | 41 ft | 2 kts | 296° |
| 2026-04-30 11:04 | 22.57314 | 120.34325 | 39 ft | 1 kts | 353° |
| 2026-04-30 11:05 | 22.57311 | 120.34325 | 40 ft | 0 kts | 358° |
| 2026-04-30 11:08 | 22.57315 | 120.34325 | 41 ft | 2 kts | 1° |
| 2026-04-30 11:08 | 22.57330 | 120.34326 | 40 ft | 4 kts | 1° |
| 2026-04-30 11:09 | 22.57367 | 120.34327 | 41 ft | 7 kts | 1° |
| 2026-04-30 11:09 | 22.57402 | 120.34316 | 41 ft | 6 kts | 308° |
| 2026-04-30 11:09 | 22.57405 | 120.34245 | 41 ft | 12 kts | 269° |
| 2026-04-30 11:09 | 22.57412 | 120.34146 | 41 ft | 13 kts | 293° |
| 2026-04-30 11:10 | 22.57492 | 120.34122 | 41 ft | 13 kts | 3° |
| 2026-04-30 11:10 | 22.57564 | 120.34167 | 39 ft | 14 kts | 76° |
| 2026-04-30 11:10 | 22.57561 | 120.34291 | 41 ft | 20 kts | 92° |
| 2026-04-30 11:10 | 22.57556 | 120.34457 | 42 ft | 24 kts | 92° |
| 2026-04-30 11:11 | 22.57551 | 120.34654 | 41 ft | 27 kts | 92° |
| 2026-04-30 11:11 | 22.57544 | 120.34856 | 41 ft | 27 kts | 93° |
| 2026-04-30 11:11 | 22.57538 | 120.35053 | 41 ft | 26 kts | 92° |
| 2026-04-30 11:11 | 22.57532 | 120.35246 | 41 ft | 25 kts | 91° |
| 2026-04-30 11:12 | 22.57526 | 120.35435 | 41 ft | 25 kts | 92° |
| 2026-04-30 11:12 | 22.57521 | 120.35618 | 41 ft | 24 kts | 92° |
| 2026-04-30 11:12 | 22.57515 | 120.35799 | 41 ft | 24 kts | 92° |
| 2026-04-30 11:12 | 22.57509 | 120.35982 | 41 ft | 24 kts | 91° |
| 2026-04-30 11:13 | 22.57504 | 120.36165 | 41 ft | 24 kts | 92° |
| 2026-04-30 11:13 | 22.57499 | 120.36323 | 41 ft | 15 kts | 93° |
| 2026-04-30 11:13 | 22.57529 | 120.36417 | 41 ft | 13 kts | 14° |
| 2026-04-30 11:13 | 22.57568 | 120.36415 | 42 ft | 1 kts | 350° |
| 2026-04-30 11:14 | 22.57616 | 120.36414 | 42 ft | 12 kts | 0° |
| 2026-04-30 11:14 | 22.57668 | 120.36365 | 43 ft | 11 kts | 270° |
| 2026-04-30 11:14 | 22.57673 | 120.36173 | 42 ft | 52 kts | 273° |
| 2026-04-30 11:14 | 22.57693 | 120.35554 | 40 ft | 111 kts | 272° |
| 2026-04-30 11:15 | 22.57722 | 120.34521 | 46 ft | 160 kts | 275° |
| 2026-04-30 11:15 | 22.57765 | 120.33309 | 455 ft | 165 kts | 275° |
| 2026-04-30 11:15 | 22.57803 | 120.32065 | 980 ft | 166 kts | 264° |
| 2026-04-30 11:15 | 22.57278 | 120.30999 | 1502 ft | 168 kts | 217° |
| 2026-04-30 11:16 | 22.56517 | 120.30719 | 1689 ft | 182 kts | 181° |
| 2026-04-30 11:16 | 22.54725 | 120.31148 | 2118 ft | 213 kts | 165° |
| 2026-04-30 11:16 | 22.53752 | 120.31455 | 2385 ft | 225 kts | 165° |
| 2026-04-30 11:16 | 22.52185 | 120.31934 | 2761 ft | 244 kts | 167° |
| 2026-04-30 11:17 | 22.49897 | 120.32539 | 3408 ft | 261 kts | 168° |
| 2026-04-30 11:17 | 22.48109 | 120.32988 | 4083 ft | 266 kts | 169° |
| 2026-04-30 11:17 | 22.46883 | 120.33292 | 4572 ft | 268 kts | 169° |
| 2026-04-30 11:17 | 22.45056 | 120.33744 | 5299 ft | 271 kts | 169° |
| 2026-04-30 11:18 | 22.43226 | 120.34194 | 5997 ft | 275 kts | 170° |
| 2026-04-30 11:18 | 22.38823 | 120.35274 | 7638 ft | 281 kts | 171° |
| 2026-04-30 11:18 | 22.37528 | 120.35591 | 8125 ft | 283 kts | 171° |
| 2026-04-30 11:19 | 22.35628 | 120.36057 | 8841 ft | 285 kts | 171° |
| 2026-04-30 11:19 | 22.33680 | 120.36533 | 9564 ft | 288 kts | 172° |
| 2026-04-30 11:19 | 22.31717 | 120.37013 | 10209 ft | 293 kts | 172° |
| 2026-04-30 11:19 | 22.29673 | 120.37509 | 10528 ft | 309 kts | 172° |
| 2026-04-30 11:20 | 22.27513 | 120.38032 | 10789 ft | 326 kts | 172° |
| 2026-04-30 11:20 | 22.25240 | 120.38585 | 11054 ft | 342 kts | 171° |
| 2026-04-30 11:20 | 22.22886 | 120.39168 | 11470 ft | 350 kts | 171° |
| 2026-04-30 11:20 | 22.20505 | 120.39816 | 11979 ft | 355 kts | 169° |
| 2026-04-30 11:21 | 22.18107 | 120.40518 | 12525 ft | 359 kts | 169° |
| 2026-04-30 11:21 | 22.15691 | 120.41250 | 13081 ft | 362 kts | 168° |
| 2026-04-30 11:21 | 22.13254 | 120.41998 | 13652 ft | 365 kts | 168° |
| 2026-04-30 11:21 | 22.10806 | 120.42749 | 14166 ft | 368 kts | 168° |
| 2026-04-30 11:22 | 22.08332 | 120.43504 | 14661 ft | 371 kts | 168° |
| 2026-04-30 11:22 | 22.05840 | 120.44259 | 15166 ft | 373 kts | 169° |
| 2026-04-30 11:22 | 22.03328 | 120.45016 | 15678 ft | 376 kts | 169° |
| 2026-04-30 11:22 | 22.00832 | 120.45767 | 16168 ft | 379 kts | 169° |
| 2026-04-30 11:23 | 21.98275 | 120.46534 | 16666 ft | 382 kts | 169° |
| 2026-04-30 11:23 | 21.95710 | 120.47303 | 17140 ft | 385 kts | 169° |
| 2026-04-30 11:23 | 21.91864 | 120.48456 | 17819 ft | 389 kts | 169° |
| 2026-04-30 11:24 | 21.89241 | 120.49242 | 18262 ft | 392 kts | 169° |
| 2026-04-30 11:24 | 21.86602 | 120.50033 | 18622 ft | 395 kts | 169° |
| 2026-04-30 11:24 | 21.83944 | 120.50829 | 18973 ft | 397 kts | 169° |
| 2026-04-30 11:25 | 21.78582 | 120.52435 | 19675 ft | 402 kts | 169° |
| 2026-04-30 11:25 | 21.75876 | 120.53245 | 20027 ft | 405 kts | 169° |
| 2026-04-30 11:25 | 21.70415 | 120.54878 | 20742 ft | 409 kts | 169° |
| 2026-04-30 11:26 | 21.64938 | 120.56515 | 21472 ft | 414 kts | 169° |
| 2026-04-30 11:26 | 21.62146 | 120.57349 | 21844 ft | 417 kts | 169° |
| 2026-04-30 11:26 | 21.59339 | 120.58187 | 22217 ft | 419 kts | 169° |
| 2026-04-30 11:27 | 21.56520 | 120.59028 | 22596 ft | 421 kts | 169° |
| 2026-04-30 11:27 | 21.53689 | 120.59872 | 22977 ft | 424 kts | 169° |
| 2026-04-30 11:27 | 21.50834 | 120.60724 | 23348 ft | 427 kts | 169° |
| 2026-04-30 11:27 | 21.47961 | 120.61580 | 23707 ft | 429 kts | 169° |
| 2026-04-30 11:28 | 21.42174 | 120.63304 | 24361 ft | 433 kts | 169° |
| 2026-04-30 11:28 | 21.39261 | 120.64172 | 24696 ft | 435 kts | 169° |
| 2026-04-30 11:28 | 21.36333 | 120.65043 | 25030 ft | 437 kts | 169° |
| 2026-04-30 11:29 | 21.33402 | 120.65915 | 25363 ft | 438 kts | 169° |
| 2026-04-30 11:29 | 21.30457 | 120.66791 | 25676 ft | 440 kts | 169° |
| 2026-04-30 11:29 | 21.24562 | 120.68543 | 26295 ft | 444 kts | 169° |
| 2026-04-30 11:30 | 21.18582 | 120.70319 | 26896 ft | 448 kts | 169° |
| 2026-04-30 11:30 | 21.15573 | 120.71211 | 27185 ft | 450 kts | 169° |
| 2026-04-30 11:30 | 21.12551 | 120.72108 | 27483 ft | 451 kts | 169° |
| 2026-04-30 11:31 | 21.09517 | 120.73007 | 27764 ft | 453 kts | 169° |
| 2026-04-30 11:31 | 21.06455 | 120.73915 | 28030 ft | 455 kts | 169° |
| 2026-04-30 11:31 | 21.03441 | 120.74797 | 28289 ft | 456 kts | 171° |
| 2026-04-30 11:31 | 21.00321 | 120.75394 | 28551 ft | 452 kts | 179° |
| 2026-04-30 11:32 | 20.97190 | 120.75504 | 28813 ft | 450 kts | 185° |
| 2026-04-30 11:32 | 20.94059 | 120.75386 | 29069 ft | 450 kts | 187° |
| 2026-04-30 11:32 | 20.90931 | 120.75171 | 29325 ft | 451 kts | 188° |
| 2026-04-30 11:33 | 20.84685 | 120.74627 | 30028 ft | 449 kts | 189° |
| 2026-04-30 11:33 | 20.81570 | 120.74346 | 30337 ft | 448 kts | 189° |
| 2026-04-30 11:33 | 20.78465 | 120.74071 | 30632 ft | 447 kts | 189° |
| 2026-04-30 11:33 | 20.75406 | 120.73808 | 30917 ft | 447 kts | 189° |
| 2026-04-30 11:34 | 20.72312 | 120.73547 | 31209 ft | 446 kts | 189° |
| 2026-04-30 11:34 | 20.69215 | 120.73290 | 31503 ft | 445 kts | 189° |
| 2026-04-30 11:34 | 20.66128 | 120.73035 | 31799 ft | 444 kts | 189° |
| 2026-04-30 11:34 | 20.63046 | 120.72782 | 32086 ft | 443 kts | 189° |
| 2026-04-30 11:35 | 20.59970 | 120.72530 | 32378 ft | 443 kts | 189° |
| 2026-04-30 11:35 | 20.56903 | 120.72279 | 32666 ft | 442 kts | 189° |
| 2026-04-30 11:35 | 20.53839 | 120.72027 | 32947 ft | 441 kts | 189° |
| 2026-04-30 11:35 | 20.50778 | 120.71776 | 33232 ft | 440 kts | 189° |
| 2026-04-30 11:36 | 20.47732 | 120.71526 | 33504 ft | 439 kts | 189° |
| 2026-04-30 11:36 | 20.44689 | 120.71276 | 33787 ft | 438 kts | 189° |
| 2026-04-30 11:36 | 20.41654 | 120.71027 | 34044 ft | 437 kts | 189° |
| 2026-04-30 11:36 | 20.38618 | 120.70777 | 34272 ft | 436 kts | 189° |
| 2026-04-30 11:37 | 20.35592 | 120.70529 | 34480 ft | 436 kts | 189° |
| 2026-04-30 11:37 | 20.32569 | 120.70281 | 34682 ft | 436 kts | 189° |
| 2026-04-30 11:37 | 20.29584 | 120.70036 | 34887 ft | 435 kts | 189° |
| 2026-04-30 11:37 | 20.26568 | 120.69788 | 35096 ft | 434 kts | 189° |
| 2026-04-30 11:38 | 20.23545 | 120.69541 | 35293 ft | 434 kts | 189° |
| 2026-04-30 11:38 | 20.20537 | 120.69294 | 35472 ft | 434 kts | 189° |
| 2026-04-30 11:38 | 20.17525 | 120.69048 | 35665 ft | 433 kts | 189° |
| 2026-04-30 11:38 | 20.14518 | 120.68802 | 35846 ft | 433 kts | 189° |
| 2026-04-30 11:39 | 20.11518 | 120.68556 | 36023 ft | 432 kts | 189° |
| 2026-04-30 11:39 | 20.08556 | 120.68314 | 36189 ft | 432 kts | 189° |
| 2026-04-30 11:39 | 20.05552 | 120.68068 | 36357 ft | 432 kts | 189° |
| 2026-04-30 11:39 | 20.02561 | 120.67824 | 36524 ft | 431 kts | 189° |
| 2026-04-30 11:40 | 19.99568 | 120.67580 | 36689 ft | 431 kts | 189° |
| 2026-04-30 11:40 | 19.96578 | 120.67336 | 36849 ft | 430 kts | 189° |
| 2026-04-30 11:40 | 19.93591 | 120.67092 | 37007 ft | 430 kts | 189° |
| 2026-04-30 11:40 | 19.90606 | 120.66849 | 37155 ft | 430 kts | 189° |
| 2026-04-30 11:41 | 19.87624 | 120.66605 | 37298 ft | 429 kts | 189° |
| 2026-04-30 11:41 | 19.84641 | 120.66362 | 37433 ft | 429 kts | 189° |
| 2026-04-30 11:41 | 19.81700 | 120.66122 | 37588 ft | 429 kts | 189° |
| 2026-04-30 11:41 | 19.78731 | 120.65880 | 37743 ft | 428 kts | 189° |
| 2026-04-30 11:42 | 19.75758 | 120.65638 | 37869 ft | 428 kts | 189° |
| 2026-04-30 11:42 | 19.72787 | 120.65396 | 37975 ft | 428 kts | 189° |
| 2026-04-30 11:42 | 19.66835 | 120.64912 | 37988 ft | 428 kts | 189° |
| 2026-04-30 11:43 | 19.60899 | 120.64430 | 37987 ft | 427 kts | 189° |
| 2026-04-30 11:43 | 19.54971 | 120.63948 | 37985 ft | 427 kts | 189° |
| 2026-04-30 11:44 | 19.49085 | 120.63470 | 37996 ft | 427 kts | 189° |
| 2026-04-30 11:44 | 19.43162 | 120.62989 | 37979 ft | 427 kts | 189° |
| 2026-04-30 11:45 | 19.37232 | 120.62509 | 37985 ft | 427 kts | 189° |
| 2026-04-30 11:45 | 19.31319 | 120.62030 | 37989 ft | 426 kts | 189° |
| 2026-04-30 11:46 | 19.25399 | 120.61550 | 37989 ft | 426 kts | 189° |
| 2026-04-30 11:46 | 19.19479 | 120.61071 | 37976 ft | 426 kts | 189° |
| 2026-04-30 11:47 | 19.13562 | 120.60593 | 37979 ft | 426 kts | 189° |
| 2026-04-30 11:47 | 19.07683 | 120.60118 | 37989 ft | 426 kts | 189° |
| 2026-04-30 11:48 | 19.01766 | 120.59640 | 37976 ft | 426 kts | 189° |
| 2026-04-30 11:48 | 18.95852 | 120.59164 | 37985 ft | 425 kts | 189° |
| 2026-04-30 11:49 | 18.89956 | 120.58689 | 37974 ft | 423 kts | 189° |
| 2026-04-30 11:49 | 18.84106 | 120.58218 | 37967 ft | 423 kts | 189° |
| 2026-04-30 11:50 | 18.78233 | 120.57745 | 37964 ft | 424 kts | 189° |
| 2026-04-30 11:50 | 18.72356 | 120.57272 | 37964 ft | 424 kts | 189° |
| 2026-04-30 11:51 | 18.66475 | 120.56800 | 37958 ft | 424 kts | 189° |
| 2026-04-30 11:51 | 18.60587 | 120.56326 | 37950 ft | 424 kts | 189° |
| 2026-04-30 11:52 | 18.54692 | 120.55853 | 37945 ft | 425 kts | 189° |
| 2026-04-30 11:52 | 18.48785 | 120.55379 | 37940 ft | 425 kts | 189° |
| 2026-04-30 11:53 | 18.42887 | 120.54906 | 37933 ft | 425 kts | 188° |
| 2026-04-30 11:53 | 18.36977 | 120.54433 | 37933 ft | 425 kts | 188° |
| 2026-04-30 11:54 | 18.31096 | 120.53962 | 37936 ft | 425 kts | 188° |
| 2026-04-30 11:54 | 18.25189 | 120.53490 | 37929 ft | 425 kts | 188° |
| 2026-04-30 11:55 | 18.19281 | 120.53018 | 37931 ft | 425 kts | 188° |
| 2026-04-30 11:55 | 18.13435 | 120.52430 | 37931 ft | 424 kts | 191° |
| 2026-04-30 11:56 | 18.07576 | 120.51719 | 37934 ft | 423 kts | 191° |
| 2026-04-30 11:56 | 18.01720 | 120.50999 | 37933 ft | 423 kts | 191° |
| 2026-04-30 11:57 | 17.95875 | 120.50296 | 37929 ft | 423 kts | 191° |
| 2026-04-30 11:57 | 17.90026 | 120.49601 | 37928 ft | 423 kts | 191° |
| 2026-04-30 11:58 | 17.84212 | 120.48914 | 37926 ft | 423 kts | 191° |
| 2026-04-30 11:58 | 17.78363 | 120.48223 | 37924 ft | 423 kts | 190° |
| 2026-04-30 11:59 | 17.72517 | 120.47532 | 37921 ft | 423 kts | 190° |
| 2026-04-30 11:59 | 17.66666 | 120.46841 | 37929 ft | 422 kts | 190° |
| 2026-04-30 12:00 | 17.60826 | 120.46151 | 37931 ft | 423 kts | 190° |
| 2026-04-30 12:00 | 17.55009 | 120.45464 | 37931 ft | 423 kts | 190° |
| 2026-04-30 12:01 | 17.49160 | 120.44774 | 37936 ft | 423 kts | 190° |
| 2026-04-30 12:01 | 17.43305 | 120.44084 | 37933 ft | 423 kts | 190° |
| 2026-04-30 12:02 | 17.37454 | 120.43395 | 37937 ft | 423 kts | 190° |
| 2026-04-30 12:02 | 17.31599 | 120.42706 | 37942 ft | 423 kts | 190° |
| 2026-04-30 12:03 | 17.22867 | 120.41679 | 37951 ft | 423 kts | 190° |
| 2026-04-30 12:04 | 17.17005 | 120.40989 | 37946 ft | 423 kts | 190° |
| 2026-04-30 12:04 | 17.11145 | 120.40299 | 37952 ft | 424 kts | 189° |
| 2026-04-30 12:05 | 17.05286 | 120.39611 | 37955 ft | 424 kts | 189° |
| 2026-04-30 12:05 | 16.99419 | 120.38922 | 37959 ft | 424 kts | 189° |
| 2026-04-30 12:06 | 16.94548 | 120.38351 | 37961 ft | 424 kts | 189° |
| 2026-04-30 12:06 | 16.88673 | 120.37662 | 37959 ft | 424 kts | 189° |
| 2026-04-30 12:07 | 16.82803 | 120.36974 | 37962 ft | 424 kts | 189° |
| 2026-04-30 12:07 | 16.76939 | 120.36288 | 37963 ft | 424 kts | 189° |
| 2026-04-30 12:08 | 16.71029 | 120.36132 | 37965 ft | 428 kts | 179° |
| 2026-04-30 12:08 | 16.65127 | 120.36769 | 37960 ft | 429 kts | 176° |
| 2026-04-30 12:09 | 16.59194 | 120.37568 | 37958 ft | 430 kts | 175° |
| 2026-04-30 12:09 | 16.53259 | 120.38384 | 37962 ft | 430 kts | 175° |
| 2026-04-30 12:10 | 16.47321 | 120.39183 | 37958 ft | 430 kts | 176° |
| 2026-04-30 12:10 | 16.41386 | 120.39970 | 37958 ft | 430 kts | 176° |
| 2026-04-30 12:11 | 16.35473 | 120.40751 | 37954 ft | 430 kts | 176° |
| 2026-04-30 12:11 | 16.29537 | 120.41534 | 37951 ft | 430 kts | 175° |
| 2026-04-30 12:12 | 16.23597 | 120.42318 | 37944 ft | 430 kts | 175° |
| 2026-04-30 12:12 | 16.17666 | 120.43101 | 37944 ft | 430 kts | 175° |
| 2026-04-30 12:13 | 16.11731 | 120.43884 | 37941 ft | 430 kts | 175° |
| 2026-04-30 12:13 | 16.05790 | 120.44667 | 37936 ft | 430 kts | 175° |
| 2026-04-30 12:14 | 15.99893 | 120.45443 | 37932 ft | 431 kts | 175° |
| 2026-04-30 12:14 | 15.93933 | 120.46228 | 37932 ft | 431 kts | 175° |
| 2026-04-30 12:15 | 15.87980 | 120.47011 | 37935 ft | 431 kts | 175° |
| 2026-04-30 12:15 | 15.82016 | 120.47795 | 37303 ft | 435 kts | 175° |
| 2026-04-30 12:15 | 15.81043 | 120.47922 | 36999 ft | 437 kts | 175° |
| 2026-04-30 12:16 | 15.78015 | 120.48318 | 35945 ft | 448 kts | 175° |
| 2026-04-30 12:16 | 15.75111 | 120.48698 | 35217 ft | 452 kts | 175° |
| 2026-04-30 12:16 | 15.71976 | 120.49109 | 34478 ft | 456 kts | 175° |
| 2026-04-30 12:16 | 15.68813 | 120.49525 | 33672 ft | 460 kts | 175° |
| 2026-04-30 12:17 | 15.62410 | 120.50360 | 31970 ft | 467 kts | 175° |
| 2026-04-30 12:17 | 15.59176 | 120.50780 | 31111 ft | 471 kts | 175° |
| 2026-04-30 12:17 | 15.55932 | 120.51202 | 30698 ft | 465 kts | 175° |
| 2026-04-30 12:18 | 15.52761 | 120.51617 | 30277 ft | 454 kts | 175° |
| 2026-04-30 12:18 | 15.49662 | 120.52024 | 29740 ft | 443 kts | 174° |
| 2026-04-30 12:18 | 15.46747 | 120.52731 | 29340 ft | 431 kts | 160° |
| 2026-04-30 12:18 | 15.44068 | 120.54008 | 29020 ft | 417 kts | 155° |
| 2026-04-30 12:19 | 15.41544 | 120.55389 | 28656 ft | 404 kts | 154° |
| 2026-04-30 12:19 | 15.39095 | 120.56756 | 28049 ft | 398 kts | 153° |
| 2026-04-30 12:19 | 15.36660 | 120.58113 | 27364 ft | 395 kts | 153° |
| 2026-04-30 12:19 | 15.34243 | 120.59455 | 26717 ft | 391 kts | 153° |
| 2026-04-30 12:20 | 15.31855 | 120.60778 | 26102 ft | 387 kts | 153° |
| 2026-04-30 12:20 | 15.29486 | 120.62087 | 25497 ft | 384 kts | 153° |
| 2026-04-30 12:20 | 15.27141 | 120.63382 | 24898 ft | 380 kts | 153° |
| 2026-04-30 12:20 | 15.24848 | 120.64647 | 24332 ft | 376 kts | 153° |
| 2026-04-30 12:21 | 15.22545 | 120.65917 | 23762 ft | 373 kts | 152° |
| 2026-04-30 12:21 | 15.20262 | 120.67176 | 23134 ft | 369 kts | 152° |
| 2026-04-30 12:21 | 15.18005 | 120.68420 | 22482 ft | 365 kts | 152° |
| 2026-04-30 12:21 | 15.15771 | 120.69651 | 21852 ft | 361 kts | 152° |
| 2026-04-30 12:22 | 15.13559 | 120.70870 | 21231 ft | 357 kts | 152° |
| 2026-04-30 12:22 | 15.11383 | 120.72068 | 20630 ft | 353 kts | 152° |
| 2026-04-30 12:22 | 15.09220 | 120.73259 | 20026 ft | 350 kts | 152° |
| 2026-04-30 12:22 | 15.07085 | 120.74434 | 19436 ft | 346 kts | 152° |
| 2026-04-30 12:23 | 15.04968 | 120.75599 | 18857 ft | 342 kts | 152° |
| 2026-04-30 12:23 | 15.02878 | 120.76749 | 18288 ft | 339 kts | 152° |
| 2026-04-30 12:23 | 15.00804 | 120.77890 | 17637 ft | 336 kts | 152° |
| 2026-04-30 12:23 | 14.98746 | 120.79022 | 16992 ft | 333 kts | 152° |
| 2026-04-30 12:24 | 14.96718 | 120.80104 | 16361 ft | 330 kts | 156° |
| 2026-04-30 12:24 | 14.94520 | 120.80732 | 15716 ft | 328 kts | 175° |
| 2026-04-30 12:24 | 14.92255 | 120.80476 | 15071 ft | 328 kts | 195° |
| 2026-04-30 12:24 | 14.90058 | 120.79904 | 14481 ft | 323 kts | 184° |
| 2026-04-30 12:25 | 14.87854 | 120.80114 | 13949 ft | 316 kts | 160° |
| 2026-04-30 12:25 | 14.85964 | 120.81198 | 13362 ft | 310 kts | 136° |
| 2026-04-30 12:25 | 14.84650 | 120.82917 | 12996 ft | 304 kts | 120° |
| 2026-04-30 12:25 | 14.83616 | 120.84823 | 12914 ft | 305 kts | 117° |
| 2026-04-30 12:26 | 14.82703 | 120.86601 | 12910 ft | 305 kts | 117° |
| 2026-04-30 12:26 | 14.81712 | 120.88544 | 12958 ft | 305 kts | 117° |
| 2026-04-30 12:26 | 14.80736 | 120.90457 | 12972 ft | 305 kts | 117° |
| 2026-04-30 12:26 | 14.79748 | 120.92396 | 12976 ft | 305 kts | 117° |
| 2026-04-30 12:27 | 14.78758 | 120.94335 | 12977 ft | 305 kts | 117° |
| 2026-04-30 12:27 | 14.77769 | 120.96274 | 12985 ft | 305 kts | 117° |
| 2026-04-30 12:27 | 14.76672 | 120.98138 | 12977 ft | 305 kts | 131° |
| 2026-04-30 12:27 | 14.74999 | 120.99460 | 12945 ft | 305 kts | 154° |
| 2026-04-30 12:28 | 14.72945 | 120.99984 | 12593 ft | 306 kts | 178° |
| 2026-04-30 12:28 | 14.70887 | 120.99558 | 12395 ft | 299 kts | 204° |
| 2026-04-30 12:28 | 14.69246 | 120.98306 | 12207 ft | 292 kts | 228° |
| 2026-04-30 12:28 | 14.68078 | 120.96665 | 12076 ft | 283 kts | 236° |
| 2026-04-30 12:29 | 14.67046 | 120.94975 | 11925 ft | 274 kts | 237° |
| 2026-04-30 12:29 | 14.66056 | 120.93316 | 11688 ft | 269 kts | 237° |
| 2026-04-30 12:29 | 14.65082 | 120.91677 | 11400 ft | 266 kts | 237° |
| 2026-04-30 12:29 | 14.64113 | 120.90046 | 11086 ft | 265 kts | 237° |
| 2026-04-30 12:30 | 14.63155 | 120.88432 | 10776 ft | 263 kts | 237° |
| 2026-04-30 12:30 | 14.62201 | 120.86822 | 10465 ft | 262 kts | 237° |
| 2026-04-30 12:30 | 14.61251 | 120.85218 | 10093 ft | 260 kts | 237° |
| 2026-04-30 12:30 | 14.60306 | 120.83619 | 9613 ft | 261 kts | 237° |
| 2026-04-30 12:31 | 14.59370 | 120.82041 | 9138 ft | 261 kts | 237° |
| 2026-04-30 12:31 | 14.58416 | 120.80446 | 8641 ft | 261 kts | 237° |
| 2026-04-30 12:31 | 14.57452 | 120.78851 | 8156 ft | 261 kts | 237° |
| 2026-04-30 12:31 | 14.56489 | 120.77267 | 7710 ft | 260 kts | 237° |
| 2026-04-30 12:32 | 14.55521 | 120.75694 | 7267 ft | 259 kts | 237° |
| 2026-04-30 12:32 | 14.54531 | 120.74144 | 6839 ft | 258 kts | 230° |
| 2026-04-30 12:32 | 14.53190 | 120.72938 | 6396 ft | 256 kts | 212° |
| 2026-04-30 12:32 | 14.51736 | 120.71871 | 5957 ft | 255 kts | 216° |
| 2026-04-30 12:33 | 14.50340 | 120.70756 | 5558 ft | 252 kts | 217° |
| 2026-04-30 12:33 | 14.48961 | 120.69640 | 5147 ft | 250 kts | 217° |
| 2026-04-30 12:33 | 14.47618 | 120.68548 | 5024 ft | 243 kts | 217° |
| 2026-04-30 12:33 | 14.46294 | 120.67470 | 4985 ft | 243 kts | 217° |
| 2026-04-30 12:34 | 14.44975 | 120.66397 | 4970 ft | 243 kts | 217° |
| 2026-04-30 12:34 | 14.43641 | 120.65311 | 4977 ft | 243 kts | 217° |
| 2026-04-30 12:34 | 14.42309 | 120.64225 | 4970 ft | 244 kts | 217° |
| 2026-04-30 12:34 | 14.40876 | 120.63382 | 4964 ft | 240 kts | 191° |
| 2026-04-30 12:35 | 14.39262 | 120.63527 | 4973 ft | 232 kts | 154° |
| 2026-04-30 12:35 | 14.37933 | 120.64447 | 4978 ft | 230 kts | 137° |
| 2026-04-30 12:35 | 14.36742 | 120.65545 | 4975 ft | 230 kts | 134° |
| 2026-04-30 12:35 | 14.35560 | 120.66665 | 4973 ft | 230 kts | 135° |
| 2026-04-30 12:36 | 14.34426 | 120.67832 | 4976 ft | 229 kts | 125° |
| 2026-04-30 12:36 | 14.33759 | 120.69283 | 4970 ft | 223 kts | 98° |
| 2026-04-30 12:36 | 14.33872 | 120.70844 | 4980 ft | 220 kts | 70° |
| 2026-04-30 12:36 | 14.34469 | 120.72276 | 4979 ft | 220 kts | 68° |
| 2026-04-30 12:37 | 14.34992 | 120.73497 | 4696 ft | 221 kts | 61° |
| 2026-04-30 12:37 | 14.35758 | 120.74867 | 4315 ft | 219 kts | 60° |
| 2026-04-30 12:37 | 14.36517 | 120.76227 | 3953 ft | 218 kts | 60° |
| 2026-04-30 12:37 | 14.37286 | 120.77563 | 3592 ft | 216 kts | 60° |
| 2026-04-30 12:38 | 14.38061 | 120.78881 | 3318 ft | 213 kts | 59° |
| 2026-04-30 12:38 | 14.38831 | 120.80192 | 3302 ft | 215 kts | 60° |
| 2026-04-30 12:38 | 14.39575 | 120.81537 | 3296 ft | 215 kts | 61° |
| 2026-04-30 12:38 | 14.40307 | 120.82886 | 3300 ft | 216 kts | 62° |
| 2026-04-30 12:39 | 14.41038 | 120.84215 | 3294 ft | 216 kts | 61° |
| 2026-04-30 12:39 | 14.41785 | 120.85561 | 3132 ft | 215 kts | 61° |
| 2026-04-30 12:39 | 14.42528 | 120.86901 | 2829 ft | 214 kts | 62° |
| 2026-04-30 12:39 | 14.43263 | 120.88231 | 2538 ft | 213 kts | 61° |
| 2026-04-30 12:40 | 14.43990 | 120.89544 | 2248 ft | 208 kts | 62° |
| 2026-04-30 12:40 | 14.44701 | 120.90829 | 1979 ft | 202 kts | 62° |
| 2026-04-30 12:40 | 14.45377 | 120.92050 | 1726 ft | 192 kts | 61° |
| 2026-04-30 12:40 | 14.46007 | 120.93188 | 1475 ft | 179 kts | 62° |
| 2026-04-30 12:41 | 14.46598 | 120.94254 | 1269 ft | 163 kts | 62° |
| 2026-04-30 12:41 | 14.47131 | 120.95219 | 1100 ft | 146 kts | 63° |
| 2026-04-30 12:41 | 14.47620 | 120.96103 | 917 ft | 140 kts | 63° |
| 2026-04-30 12:41 | 14.48100 | 120.96974 | 731 ft | 139 kts | 64° |
| 2026-04-30 12:42 | 14.48578 | 120.97842 | 568 ft | 140 kts | 62° |
| 2026-04-30 12:42 | 14.49067 | 120.98722 | 355 ft | 140 kts | 64° |
| 2026-04-30 12:42 | 14.49552 | 120.99592 | 204 ft | 140 kts | 64° |
| 2026-04-30 12:42 | 14.50031 | 121.00452 | 92 ft | 136 kts | 64° |
| 2026-04-30 12:43 | 14.50439 | 121.01202 | 66 ft | 88 kts | 57° |
| 2026-04-30 12:43 | 14.50632 | 121.01537 | 68 ft | 42 kts | 60° |
| 2026-04-30 12:43 | 14.50788 | 121.01736 | 71 ft | 27 kts | 37° |
| 2026-04-30 12:43 | 14.50862 | 121.01792 | 71 ft | 1 kts | 20° |
| 2026-04-30 12:44 | 14.50864 | 121.01792 | 71 ft | 0 kts | 4° |
| 2026-04-30 12:44 | 14.50873 | 121.01789 | 69 ft | 4 kts | 345° |
| 2026-04-30 12:44 | 14.50922 | 121.01744 | 69 ft | 10 kts | 320° |
| 2026-04-30 12:44 | 14.50960 | 121.01695 | 63 ft | 8 kts | 275° |
| 2026-04-30 12:45 | 14.50945 | 121.01661 | 64 ft | 0 kts | 237° |
| 2026-04-30 12:45 | 14.50933 | 121.01642 | 70 ft | 4 kts | 238° |
| 2026-04-30 12:45 | 14.50910 | 121.01602 | 67 ft | 9 kts | 241° |
| 2026-04-30 12:46 | 14.50875 | 121.01538 | 71 ft | 10 kts | 240° |
| 2026-04-30 12:46 | 14.50842 | 121.01480 | 63 ft | 7 kts | 239° |
| 2026-04-30 12:46 | 14.50845 | 121.01450 | 65 ft | 4 kts | 325° |
| 2026-04-30 12:46 | 14.50875 | 121.01432 | 64 ft | 6 kts | 331° |
| 2026-04-30 12:47 | 14.50907 | 121.01414 | 71 ft | 1 kts | 329° |
| 2026-04-30 12:47 | 14.50908 | 121.01413 | 71 ft | 0 kts | 329° |